sensor_id;sensor_type;location;lat;lon;timestamp;temperature;humidity
18173;DHT22;9211;48.818;9.312;2023-07-20T00:00:59;21.90;89.40
18173;DHT22;9211;48.818;9.312;2023-07-20T00:03:26;21.90;88.90
18173;DHT22;9211;48.818;9.312;2023-07-20T00:05:53;21.90;89.70
18173;DHT22;9211;48.818;9.312;2023-07-20T00:08:20;21.80;90.00
18173;DHT22;9211;48.818;9.312;2023-07-20T00:10:47;21.80;89.90
18173;DHT22;9211;48.818;9.312;2023-07-20T00:13:14;21.80;90.00
18173;DHT22;9211;48.818;9.312;2023-07-20T00:15:45;21.70;90.20
18173;DHT22;9211;48.818;9.312;2023-07-20T00:18:12;21.70;90.50
18173;DHT22;9211;48.818;9.312;2023-07-20T00:20:39;21.70;90.60
18173;DHT22;9211;48.818;9.312;2023-07-20T00:23:06;21.70;90.70
18173;DHT22;9211;48.818;9.312;2023-07-20T00:25:33;21.70;91.10
18173;DHT22;9211;48.818;9.312;2023-07-20T00:28:00;21.70;90.90
18173;DHT22;9211;48.818;9.312;2023-07-20T00:30:27;21.70;90.70
18173;DHT22;9211;48.818;9.312;2023-07-20T00:32:55;21.60;90.70
18173;DHT22;9211;48.818;9.312;2023-07-20T00:35:22;21.60;90.50
18173;DHT22;9211;48.818;9.312;2023-07-20T00:37:50;21.60;90.30
18173;DHT22;9211;48.818;9.312;2023-07-20T00:40:17;21.50;90.20
18173;DHT22;9211;48.818;9.312;2023-07-20T00:42:44;21.50;90.30
18173;DHT22;9211;48.818;9.312;2023-07-20T00:45:11;21.50;90.40
18173;DHT22;9211;48.818;9.312;2023-07-20T00:47:38;21.40;90.30
18173;DHT22;9211;48.818;9.312;2023-07-20T00:50:07;21.30;90.30
18173;DHT22;9211;48.818;9.312;2023-07-20T00:52:37;21.30;90.10
18173;DHT22;9211;48.818;9.312;2023-07-20T00:55:07;21.30;90.10
18173;DHT22;9211;48.818;9.312;2023-07-20T00:57:34;21.30;90.00
18173;DHT22;9211;48.818;9.312;2023-07-20T01:00:01;21.30;90.00
18173;DHT22;9211;48.818;9.312;2023-07-20T01:02:28;21.20;90.00
18173;DHT22;9211;48.818;9.312;2023-07-20T01:04:55;21.20;90.00
18173;DHT22;9211;48.818;9.312;2023-07-20T01:07:26;21.20;89.90
18173;DHT22;9211;48.818;9.312;2023-07-20T01:10:02;21.10;90.00
18173;DHT22;9211;48.818;9.312;2023-07-20T01:12:39;21.00;90.00
18173;DHT22;9211;48.818;9.312;2023-07-20T01:15:07;21.10;90.00
18173;DHT22;9211;48.818;9.312;2023-07-20T01:17:35;21.00;90.10
18173;DHT22;9211;48.818;9.312;2023-07-20T01:20:02;20.80;90.30
18173;DHT22;9211;48.818;9.312;2023-07-20T01:22:55;20.90;90.30
18173;DHT22;9211;48.818;9.312;2023-07-20T01:25:41;20.80;90.30
18173;DHT22;9211;48.818;9.312;2023-07-20T01:28:28;20.80;90.40
18173;DHT22;9211;48.818;9.312;2023-07-20T01:31:13;20.80;90.50
18173;DHT22;9211;48.818;9.312;2023-07-20T01:33:42;20.70;90.30
18173;DHT22;9211;48.818;9.312;2023-07-20T01:36:10;20.70;90.60
18173;DHT22;9211;48.818;9.312;2023-07-20T01:38:38;20.70;90.60
18173;DHT22;9211;48.818;9.312;2023-07-20T01:41:05;20.70;90.60
18173;DHT22;9211;48.818;9.312;2023-07-20T01:43:32;20.70;91.00
18173;DHT22;9211;48.818;9.312;2023-07-20T01:45:59;20.60;90.90
18173;DHT22;9211;48.818;9.312;2023-07-20T01:48:28;20.60;90.80
18173;DHT22;9211;48.818;9.312;2023-07-20T01:50:55;20.60;90.80
18173;DHT22;9211;48.818;9.312;2023-07-20T01:53:22;20.60;91.50
18173;DHT22;9211;48.818;9.312;2023-07-20T01:55:49;20.50;91.10
18173;DHT22;9211;48.818;9.312;2023-07-20T01:58:19;20.50;91.40
18173;DHT22;9211;48.818;9.312;2023-07-20T02:03:29;20.40;91.20
18173;DHT22;9211;48.818;9.312;2023-07-20T02:05:56;20.40;91.40
18173;DHT22;9211;48.818;9.312;2023-07-20T02:08:25;20.30;91.60
18173;DHT22;9211;48.818;9.312;2023-07-20T02:10:54;20.30;91.90
18173;DHT22;9211;48.818;9.312;2023-07-20T02:13:21;20.30;91.70
18173;DHT22;9211;48.818;9.312;2023-07-20T02:15:48;20.30;92.20
18173;DHT22;9211;48.818;9.312;2023-07-20T02:18:16;20.20;92.00
18173;DHT22;9211;48.818;9.312;2023-07-20T02:20:45;20.20;91.90
18173;DHT22;9211;48.818;9.312;2023-07-20T02:23:12;20.20;91.90
18173;DHT22;9211;48.818;9.312;2023-07-20T02:25:39;20.20;92.00
18173;DHT22;9211;48.818;9.312;2023-07-20T02:28:07;20.20;92.00
18173;DHT22;9211;48.818;9.312;2023-07-20T02:30:37;20.20;92.10
18173;DHT22;9211;48.818;9.312;2023-07-20T02:33:05;20.20;92.30
18173;DHT22;9211;48.818;9.312;2023-07-20T02:35:32;20.20;92.50
18173;DHT22;9211;48.818;9.312;2023-07-20T02:38:00;20.10;92.50
18173;DHT22;9211;48.818;9.312;2023-07-20T02:40:27;20.10;92.50
18173;DHT22;9211;48.818;9.312;2023-07-20T02:42:54;20.10;92.60
18173;DHT22;9211;48.818;9.312;2023-07-20T02:45:21;20.10;92.50
18173;DHT22;9211;48.818;9.312;2023-07-20T02:47:48;20.00;92.70
18173;DHT22;9211;48.818;9.312;2023-07-20T02:50:15;20.00;92.80
18173;DHT22;9211;48.818;9.312;2023-07-20T02:52:42;20.00;92.80
18173;DHT22;9211;48.818;9.312;2023-07-20T02:55:10;20.00;93.00
18173;DHT22;9211;48.818;9.312;2023-07-20T02:57:37;19.90;93.00
18173;DHT22;9211;48.818;9.312;2023-07-20T03:00:05;19.90;93.60
18173;DHT22;9211;48.818;9.312;2023-07-20T03:02:33;19.90;93.30
18173;DHT22;9211;48.818;9.312;2023-07-20T03:05:00;19.80;93.40
18173;DHT22;9211;48.818;9.312;2023-07-20T03:07:31;19.80;93.50
18173;DHT22;9211;48.818;9.312;2023-07-20T03:09:58;19.80;93.50
18173;DHT22;9211;48.818;9.312;2023-07-20T03:12:27;19.80;93.80
18173;DHT22;9211;48.818;9.312;2023-07-20T03:14:54;19.80;94.00
18173;DHT22;9211;48.818;9.312;2023-07-20T03:17:22;19.70;94.30
18173;DHT22;9211;48.818;9.312;2023-07-20T03:19:50;19.70;94.40
18173;DHT22;9211;48.818;9.312;2023-07-20T03:22:17;19.70;94.20
18173;DHT22;9211;48.818;9.312;2023-07-20T03:24:44;19.60;94.20
18173;DHT22;9211;48.818;9.312;2023-07-20T03:27:11;19.60;94.30
18173;DHT22;9211;48.818;9.312;2023-07-20T03:29:39;19.60;94.40
18173;DHT22;9211;48.818;9.312;2023-07-20T03:32:07;19.60;94.50
18173;DHT22;9211;48.818;9.312;2023-07-20T03:34:34;19.60;94.60
18173;DHT22;9211;48.818;9.312;2023-07-20T03:37:01;19.50;94.50
18173;DHT22;9211;48.818;9.312;2023-07-20T03:39:30;19.50;94.80
18173;DHT22;9211;48.818;9.312;2023-07-20T03:41:57;19.50;94.50
18173;DHT22;9211;48.818;9.312;2023-07-20T03:44:24;19.50;94.70
18173;DHT22;9211;48.818;9.312;2023-07-20T03:46:53;19.40;94.80
18173;DHT22;9211;48.818;9.312;2023-07-20T03:49:20;19.40;94.90
18173;DHT22;9211;48.818;9.312;2023-07-20T03:51:47;19.40;95.10
18173;DHT22;9211;48.818;9.312;2023-07-20T03:54:14;19.30;95.30
18173;DHT22;9211;48.818;9.312;2023-07-20T03:56:41;19.30;95.40
18173;DHT22;9211;48.818;9.312;2023-07-20T03:59:07;19.30;95.40
18173;DHT22;9211;48.818;9.312;2023-07-20T04:01:34;19.20;96.10
18173;DHT22;9211;48.818;9.312;2023-07-20T04:04:07;19.20;95.70
18173;DHT22;9211;48.818;9.312;2023-07-20T04:06:34;19.20;95.80
18173;DHT22;9211;48.818;9.312;2023-07-20T04:09:02;19.20;95.90
18173;DHT22;9211;48.818;9.312;2023-07-20T04:11:30;19.10;96.00
18173;DHT22;9211;48.818;9.312;2023-07-20T04:13:57;19.20;96.00
18173;DHT22;9211;48.818;9.312;2023-07-20T04:16:24;19.10;96.10
18173;DHT22;9211;48.818;9.312;2023-07-20T04:18:51;19.10;96.20
18173;DHT22;9211;48.818;9.312;2023-07-20T04:21:20;19.10;96.60
18173;DHT22;9211;48.818;9.312;2023-07-20T04:23:47;19.10;96.40
18173;DHT22;9211;48.818;9.312;2023-07-20T04:26:14;19.10;96.50
18173;DHT22;9211;48.818;9.312;2023-07-20T04:28:41;19.10;96.70
18173;DHT22;9211;48.818;9.312;2023-07-20T04:31:12;19.10;96.60
18173;DHT22;9211;48.818;9.312;2023-07-20T04:33:39;19.10;96.60
18173;DHT22;9211;48.818;9.312;2023-07-20T04:36:08;19.10;96.70
18173;DHT22;9211;48.818;9.312;2023-07-20T04:38:37;19.20;96.90
18173;DHT22;9211;48.818;9.312;2023-07-20T04:41:17;19.20;96.90
18173;DHT22;9211;48.818;9.312;2023-07-20T04:43:47;19.20;96.90
18173;DHT22;9211;48.818;9.312;2023-07-20T04:46:19;19.20;96.60
18173;DHT22;9211;48.818;9.312;2023-07-20T04:48:47;19.20;96.70
18173;DHT22;9211;48.818;9.312;2023-07-20T04:51:15;19.30;96.60
18173;DHT22;9211;48.818;9.312;2023-07-20T04:53:44;19.30;96.70
18173;DHT22;9211;48.818;9.312;2023-07-20T04:56:11;19.30;96.60
18173;DHT22;9211;48.818;9.312;2023-07-20T04:58:38;19.30;96.60
18173;DHT22;9211;48.818;9.312;2023-07-20T05:01:05;19.30;96.90
18173;DHT22;9211;48.818;9.312;2023-07-20T05:03:34;19.40;96.70
18173;DHT22;9211;48.818;9.312;2023-07-20T05:06:02;19.40;97.30
18173;DHT22;9211;48.818;9.312;2023-07-20T05:08:29;19.40;96.90
18173;DHT22;9211;48.818;9.312;2023-07-20T05:10:57;19.40;96.70
18173;DHT22;9211;48.818;9.312;2023-07-20T05:13:25;19.50;97.10
18173;DHT22;9211;48.818;9.312;2023-07-20T05:15:52;19.50;96.80
18173;DHT22;9211;48.818;9.312;2023-07-20T05:18:20;19.50;96.70
18173;DHT22;9211;48.818;9.312;2023-07-20T05:20:49;19.50;96.80
18173;DHT22;9211;48.818;9.312;2023-07-20T05:23:18;19.50;97.10
18173;DHT22;9211;48.818;9.312;2023-07-20T05:25:45;19.60;97.30
18173;DHT22;9211;48.818;9.312;2023-07-20T05:28:14;19.60;96.50
18173;DHT22;9211;48.818;9.312;2023-07-20T05:30:41;19.60;96.80
18173;DHT22;9211;48.818;9.312;2023-07-20T05:33:08;19.70;97.00
18173;DHT22;9211;48.818;9.312;2023-07-20T05:35:36;19.70;96.80
18173;DHT22;9211;48.818;9.312;2023-07-20T05:38:03;19.70;96.40
18173;DHT22;9211;48.818;9.312;2023-07-20T05:40:32;19.80;96.50
18173;DHT22;9211;48.818;9.312;2023-07-20T05:42:59;19.80;96.80
18173;DHT22;9211;48.818;9.312;2023-07-20T05:45:27;19.90;96.80
18173;DHT22;9211;48.818;9.312;2023-07-20T05:47:54;19.90;96.60
18173;DHT22;9211;48.818;9.312;2023-07-20T05:50:21;19.90;96.50
18173;DHT22;9211;48.818;9.312;2023-07-20T05:52:49;19.90;96.60
18173;DHT22;9211;48.818;9.312;2023-07-20T05:55:16;19.90;96.20
18173;DHT22;9211;48.818;9.312;2023-07-20T05:57:43;20.00;96.30
18173;DHT22;9211;48.818;9.312;2023-07-20T06:00:11;20.00;97.30
18173;DHT22;9211;48.818;9.312;2023-07-20T06:02:40;20.10;97.30
18173;DHT22;9211;48.818;9.312;2023-07-20T06:05:08;20.10;97.60
18173;DHT22;9211;48.818;9.312;2023-07-20T06:07:36;20.20;97.70
18173;DHT22;9211;48.818;9.312;2023-07-20T06:10:03;20.20;97.70
18173;DHT22;9211;48.818;9.312;2023-07-20T06:12:31;20.20;97.40
18173;DHT22;9211;48.818;9.312;2023-07-20T06:15:01;20.20;97.50
18173;DHT22;9211;48.818;9.312;2023-07-20T06:17:28;20.20;97.90
18173;DHT22;9211;48.818;9.312;2023-07-20T06:19:56;20.30;98.10
18173;DHT22;9211;48.818;9.312;2023-07-20T06:22:23;20.20;98.10
18173;DHT22;9211;48.818;9.312;2023-07-20T06:24:50;20.20;98.80
18173;DHT22;9211;48.818;9.312;2023-07-20T06:27:17;20.20;97.60
18173;DHT22;9211;48.818;9.312;2023-07-20T06:29:44;20.30;97.30
18173;DHT22;9211;48.818;9.312;2023-07-20T06:32:11;20.30;96.60
18173;DHT22;9211;48.818;9.312;2023-07-20T06:34:39;20.40;96.70
18173;DHT22;9211;48.818;9.312;2023-07-20T06:37:07;20.50;96.90
18173;DHT22;9211;48.818;9.312;2023-07-20T06:39:35;20.60;97.00
18173;DHT22;9211;48.818;9.312;2023-07-20T06:42:02;20.70;97.50
18173;DHT22;9211;48.818;9.312;2023-07-20T06:44:29;20.70;97.30
18173;DHT22;9211;48.818;9.312;2023-07-20T06:46:56;20.70;97.50
18173;DHT22;9211;48.818;9.312;2023-07-20T06:49:26;20.80;97.30
18173;DHT22;9211;48.818;9.312;2023-07-20T06:51:54;20.80;97.80
18173;DHT22;9211;48.818;9.312;2023-07-20T06:54:22;20.80;97.80
18173;DHT22;9211;48.818;9.312;2023-07-20T06:56:50;20.80;98.00
18173;DHT22;9211;48.818;9.312;2023-07-20T06:59:17;20.80;97.70
18173;DHT22;9211;48.818;9.312;2023-07-20T07:01:44;20.90;97.70
18173;DHT22;9211;48.818;9.312;2023-07-20T07:04:11;20.90;97.40
18173;DHT22;9211;48.818;9.312;2023-07-20T07:06:37;21.00;97.00
18173;DHT22;9211;48.818;9.312;2023-07-20T07:09:04;21.10;96.80
18173;DHT22;9211;48.818;9.312;2023-07-20T07:11:33;21.20;97.20
18173;DHT22;9211;48.818;9.312;2023-07-20T07:14:00;21.20;97.20
18173;DHT22;9211;48.818;9.312;2023-07-20T07:16:27;21.20;97.00
18173;DHT22;9211;48.818;9.312;2023-07-20T07:18:54;21.30;96.80
18173;DHT22;9211;48.818;9.312;2023-07-20T07:21:21;21.30;97.50
18173;DHT22;9211;48.818;9.312;2023-07-20T07:23:48;21.40;97.60
18173;DHT22;9211;48.818;9.312;2023-07-20T07:26:15;21.50;97.80
18173;DHT22;9211;48.818;9.312;2023-07-20T07:28:43;21.70;97.70
18173;DHT22;9211;48.818;9.312;2023-07-20T07:31:10;21.70;97.60
18173;DHT22;9211;48.818;9.312;2023-07-20T07:33:37;21.80;96.90
18173;DHT22;9211;48.818;9.312;2023-07-20T07:36:04;21.90;97.10
18173;DHT22;9211;48.818;9.312;2023-07-20T07:38:31;21.90;97.30
18173;DHT22;9211;48.818;9.312;2023-07-20T07:40:59;21.90;97.40
18173;DHT22;9211;48.818;9.312;2023-07-20T07:43:26;21.90;97.10
18173;DHT22;9211;48.818;9.312;2023-07-20T07:45:55;22.00;95.90
18173;DHT22;9211;48.818;9.312;2023-07-20T07:48:22;22.00;96.30
18173;DHT22;9211;48.818;9.312;2023-07-20T07:50:51;22.00;95.20
18173;DHT22;9211;48.818;9.312;2023-07-20T07:53:18;22.10;94.70
18173;DHT22;9211;48.818;9.312;2023-07-20T07:55:47;22.10;94.90
18173;DHT22;9211;48.818;9.312;2023-07-20T07:58:14;22.00;94.50
18173;DHT22;9211;48.818;9.312;2023-07-20T08:00:41;22.00;94.70
18173;DHT22;9211;48.818;9.312;2023-07-20T08:03:10;21.90;94.60
18173;DHT22;9211;48.818;9.312;2023-07-20T08:05:37;21.80;94.40
18173;DHT22;9211;48.818;9.312;2023-07-20T08:08:04;21.80;94.20
18173;DHT22;9211;48.818;9.312;2023-07-20T08:10:31;21.80;94.70
18173;DHT22;9211;48.818;9.312;2023-07-20T08:12:58;21.90;93.90
18173;DHT22;9211;48.818;9.312;2023-07-20T08:15:25;21.90;93.60
18173;DHT22;9211;48.818;9.312;2023-07-20T08:17:52;21.90;93.40
18173;DHT22;9211;48.818;9.312;2023-07-20T08:20:21;21.90;93.70
18173;DHT22;9211;48.818;9.312;2023-07-20T08:22:52;22.00;93.60
18173;DHT22;9211;48.818;9.312;2023-07-20T08:25:19;22.10;94.00
18173;DHT22;9211;48.818;9.312;2023-07-20T08:27:47;22.30;93.80
18173;DHT22;9211;48.818;9.312;2023-07-20T08:30:14;22.40;93.90
18173;DHT22;9211;48.818;9.312;2023-07-20T08:32:40;22.50;93.40
18173;DHT22;9211;48.818;9.312;2023-07-20T08:35:08;22.70;94.50
18173;DHT22;9211;48.818;9.312;2023-07-20T08:37:36;22.70;94.00
18173;DHT22;9211;48.818;9.312;2023-07-20T08:40:04;22.70;93.00
18173;DHT22;9211;48.818;9.312;2023-07-20T08:42:34;22.70;94.00
18173;DHT22;9211;48.818;9.312;2023-07-20T08:45:05;22.70;93.60
18173;DHT22;9211;48.818;9.312;2023-07-20T08:47:33;22.70;92.80
18173;DHT22;9211;48.818;9.312;2023-07-20T08:50:01;22.60;92.90
18173;DHT22;9211;48.818;9.312;2023-07-20T08:52:33;22.50;92.90
18173;DHT22;9211;48.818;9.312;2023-07-20T08:55:03;22.40;92.80
18173;DHT22;9211;48.818;9.312;2023-07-20T08:57:33;22.30;92.20
18173;DHT22;9211;48.818;9.312;2023-07-20T09:00:02;22.20;92.60
18173;DHT22;9211;48.818;9.312;2023-07-20T09:02:35;22.20;92.30
18173;DHT22;9211;48.818;9.312;2023-07-20T09:05:07;22.30;91.80
18173;DHT22;9211;48.818;9.312;2023-07-20T09:07:35;22.50;91.10
18173;DHT22;9211;48.818;9.312;2023-07-20T09:10:04;22.50;90.50
18173;DHT22;9211;48.818;9.312;2023-07-20T09:12:32;22.70;91.00
18173;DHT22;9211;48.818;9.312;2023-07-20T09:14:59;22.70;90.10
18173;DHT22;9211;48.818;9.312;2023-07-20T09:17:26;22.70;91.00
18173;DHT22;9211;48.818;9.312;2023-07-20T09:19:53;22.70;91.20
18173;DHT22;9211;48.818;9.312;2023-07-20T09:22:20;22.70;90.40
18173;DHT22;9211;48.818;9.312;2023-07-20T09:24:47;22.80;90.10
18173;DHT22;9211;48.818;9.312;2023-07-20T09:27:16;22.80;90.30
18173;DHT22;9211;48.818;9.312;2023-07-20T09:29:48;22.90;90.10
18173;DHT22;9211;48.818;9.312;2023-07-20T09:32:19;23.00;90.00
18173;DHT22;9211;48.818;9.312;2023-07-20T09:34:46;23.20;90.20
18173;DHT22;9211;48.818;9.312;2023-07-20T09:37:14;23.30;89.80
18173;DHT22;9211;48.818;9.312;2023-07-20T09:39:44;23.30;89.00
18173;DHT22;9211;48.818;9.312;2023-07-20T09:42:11;23.30;89.30
18173;DHT22;9211;48.818;9.312;2023-07-20T09:44:43;23.30;89.70
18173;DHT22;9211;48.818;9.312;2023-07-20T09:47:10;23.20;90.00
18173;DHT22;9211;48.818;9.312;2023-07-20T09:49:39;23.20;90.20
18173;DHT22;9211;48.818;9.312;2023-07-20T09:52:08;23.10;90.30
18173;DHT22;9211;48.818;9.312;2023-07-20T09:54:37;23.00;90.00
18173;DHT22;9211;48.818;9.312;2023-07-20T09:57:07;22.90;89.60
18173;DHT22;9211;48.818;9.312;2023-07-20T09:59:34;22.90;88.60
18173;DHT22;9211;48.818;9.312;2023-07-20T10:02:07;23.10;88.00
18173;DHT22;9211;48.818;9.312;2023-07-20T10:04:37;23.30;87.30
18173;DHT22;9211;48.818;9.312;2023-07-20T10:07:10;23.60;89.30
18173;DHT22;9211;48.818;9.312;2023-07-20T10:09:39;23.70;87.70
18173;DHT22;9211;48.818;9.312;2023-07-20T10:12:08;23.90;85.90
18173;DHT22;9211;48.818;9.312;2023-07-20T10:14:40;23.80;84.60
18173;DHT22;9211;48.818;9.312;2023-07-20T10:17:12;23.90;83.80
18173;DHT22;9211;48.818;9.312;2023-07-20T10:19:43;23.80;84.00
18173;DHT22;9211;48.818;9.312;2023-07-20T10:22:13;23.60;82.70
18173;DHT22;9211;48.818;9.312;2023-07-20T10:24:45;23.50;83.30
18173;DHT22;9211;48.818;9.312;2023-07-20T10:27:13;23.50;83.60
18173;DHT22;9211;48.818;9.312;2023-07-20T10:29:40;23.60;83.40
18173;DHT22;9211;48.818;9.312;2023-07-20T10:32:09;23.80;86.80
18173;DHT22;9211;48.818;9.312;2023-07-20T10:34:37;24.10;84.00
18173;DHT22;9211;48.818;9.312;2023-07-20T10:37:04;24.20;82.10
18173;DHT22;9211;48.818;9.312;2023-07-20T10:39:33;24.40;80.00
18173;DHT22;9211;48.818;9.312;2023-07-20T10:42:01;24.40;79.70
18173;DHT22;9211;48.818;9.312;2023-07-20T10:44:29;24.40;78.00
18173;DHT22;9211;48.818;9.312;2023-07-20T10:47:00;24.20;78.20
18173;DHT22;9211;48.818;9.312;2023-07-20T10:49:29;24.10;77.60
18173;DHT22;9211;48.818;9.312;2023-07-20T10:52:00;24.10;77.80
18173;DHT22;9211;48.818;9.312;2023-07-20T10:54:48;24.10;78.30
18173;DHT22;9211;48.818;9.312;2023-07-20T10:57:28;24.10;77.40
18173;DHT22;9211;48.818;9.312;2023-07-20T11:00:08;24.20;78.20
18173;DHT22;9211;48.818;9.312;2023-07-20T11:02:45;24.20;76.90
18173;DHT22;9211;48.818;9.312;2023-07-20T11:05:32;24.20;76.80
18173;DHT22;9211;48.818;9.312;2023-07-20T11:08:00;24.20;76.10
18173;DHT22;9211;48.818;9.312;2023-07-20T11:10:27;24.20;75.00
18173;DHT22;9211;48.818;9.312;2023-07-20T11:13:19;24.20;75.30
18173;DHT22;9211;48.818;9.312;2023-07-20T11:15:47;24.30;74.70
18173;DHT22;9211;48.818;9.312;2023-07-20T11:18:15;24.40;74.90
18173;DHT22;9211;48.818;9.312;2023-07-20T11:20:43;24.40;75.30
18173;DHT22;9211;48.818;9.312;2023-07-20T11:23:10;24.40;75.00
18173;DHT22;9211;48.818;9.312;2023-07-20T11:25:39;24.50;75.60
18173;DHT22;9211;48.818;9.312;2023-07-20T11:28:07;24.60;75.30
18173;DHT22;9211;48.818;9.312;2023-07-20T11:30:37;24.60;72.80
18173;DHT22;9211;48.818;9.312;2023-07-20T11:33:04;24.60;73.30
18173;DHT22;9211;48.818;9.312;2023-07-20T11:35:35;24.60;73.10
18173;DHT22;9211;48.818;9.312;2023-07-20T11:38:03;24.70;73.00
18173;DHT22;9211;48.818;9.312;2023-07-20T11:40:33;24.80;72.00
18173;DHT22;9211;48.818;9.312;2023-07-20T11:43:00;24.90;72.30
18173;DHT22;9211;48.818;9.312;2023-07-20T11:45:27;24.90;72.40
18173;DHT22;9211;48.818;9.312;2023-07-20T11:47:59;24.90;71.60
18173;DHT22;9211;48.818;9.312;2023-07-20T11:50:26;24.90;71.20
18173;DHT22;9211;48.818;9.312;2023-07-20T11:52:53;25.00;71.10
18173;DHT22;9211;48.818;9.312;2023-07-20T11:55:21;25.10;70.10
18173;DHT22;9211;48.818;9.312;2023-07-20T11:58:01;25.10;71.60
18173;DHT22;9211;48.818;9.312;2023-07-20T12:00:28;25.30;70.00
18173;DHT22;9211;48.818;9.312;2023-07-20T12:02:56;25.40;69.80
18173;DHT22;9211;48.818;9.312;2023-07-20T12:05:23;25.40;69.20
18173;DHT22;9211;48.818;9.312;2023-07-20T12:07:50;25.40;69.30
18173;DHT22;9211;48.818;9.312;2023-07-20T12:10:25;25.40;68.60
18173;DHT22;9211;48.818;9.312;2023-07-20T12:12:52;25.40;69.40
18173;DHT22;9211;48.818;9.312;2023-07-20T12:15:25;25.60;68.40
18173;DHT22;9211;48.818;9.312;2023-07-20T12:17:56;25.70;66.60
18173;DHT22;9211;48.818;9.312;2023-07-20T12:20:28;25.80;66.60
18173;DHT22;9211;48.818;9.312;2023-07-20T12:23:00;25.90;66.60
18173;DHT22;9211;48.818;9.312;2023-07-20T12:25:41;25.80;66.30
18173;DHT22;9211;48.818;9.312;2023-07-20T12:28:09;25.70;66.70
18173;DHT22;9211;48.818;9.312;2023-07-20T12:30:37;25.80;66.50
18173;DHT22;9211;48.818;9.312;2023-07-20T12:33:04;25.80;66.00
18173;DHT22;9211;48.818;9.312;2023-07-20T12:35:32;25.90;66.00
18173;DHT22;9211;48.818;9.312;2023-07-20T12:37:59;26.00;66.10
18173;DHT22;9211;48.818;9.312;2023-07-20T12:40:26;26.00;66.10
18173;DHT22;9211;48.818;9.312;2023-07-20T12:42:55;26.10;65.10
18173;DHT22;9211;48.818;9.312;2023-07-20T12:45:24;26.00;65.20
18173;DHT22;9211;48.818;9.312;2023-07-20T12:47:51;26.10;65.80
18173;DHT22;9211;48.818;9.312;2023-07-20T12:50:18;26.10;65.40
18173;DHT22;9211;48.818;9.312;2023-07-20T12:52:45;26.10;65.00
18173;DHT22;9211;48.818;9.312;2023-07-20T12:55:12;26.10;64.30
18173;DHT22;9211;48.818;9.312;2023-07-20T12:57:41;26.10;63.90
18173;DHT22;9211;48.818;9.312;2023-07-20T13:00:11;26.10;64.30
18173;DHT22;9211;48.818;9.312;2023-07-20T13:02:38;26.10;63.60
18173;DHT22;9211;48.818;9.312;2023-07-20T13:05:07;26.30;63.60
18173;DHT22;9211;48.818;9.312;2023-07-20T13:07:36;26.30;62.80
18173;DHT22;9211;48.818;9.312;2023-07-20T13:10:04;26.30;63.40
18173;DHT22;9211;48.818;9.312;2023-07-20T13:12:32;26.30;64.00
18173;DHT22;9211;48.818;9.312;2023-07-20T13:15:00;26.40;63.70
18173;DHT22;9211;48.818;9.312;2023-07-20T13:17:29;26.50;63.90
18173;DHT22;9211;48.818;9.312;2023-07-20T13:19:56;26.70;64.30
18173;DHT22;9211;48.818;9.312;2023-07-20T13:22:23;26.70;63.80
18173;DHT22;9211;48.818;9.312;2023-07-20T13:24:50;26.70;62.30
18173;DHT22;9211;48.818;9.312;2023-07-20T13:27:19;26.60;61.40
18173;DHT22;9211;48.818;9.312;2023-07-20T13:29:52;26.70;61.60
18173;DHT22;9211;48.818;9.312;2023-07-20T13:32:19;26.70;61.20
18173;DHT22;9211;48.818;9.312;2023-07-20T13:34:47;26.80;61.30
18173;DHT22;9211;48.818;9.312;2023-07-20T13:37:15;27.00;61.30
18173;DHT22;9211;48.818;9.312;2023-07-20T13:39:42;27.10;61.50
18173;DHT22;9211;48.818;9.312;2023-07-20T13:42:10;27.30;59.60
18173;DHT22;9211;48.818;9.312;2023-07-20T13:44:38;27.40;60.00
18173;DHT22;9211;48.818;9.312;2023-07-20T13:47:06;27.50;60.50
18173;DHT22;9211;48.818;9.312;2023-07-20T13:49:33;27.50;59.10
18173;DHT22;9211;48.818;9.312;2023-07-20T13:52:02;27.40;59.40
18173;DHT22;9211;48.818;9.312;2023-07-20T13:54:29;27.20;59.40
18173;DHT22;9211;48.818;9.312;2023-07-20T13:56:56;27.30;59.70
18173;DHT22;9211;48.818;9.312;2023-07-20T13:59:23;27.40;59.30
18173;DHT22;9211;48.818;9.312;2023-07-20T14:01:51;27.10;58.80
18173;DHT22;9211;48.818;9.312;2023-07-20T14:04:18;27.10;58.90
18173;DHT22;9211;48.818;9.312;2023-07-20T14:06:47;27.10;58.90
18173;DHT22;9211;48.818;9.312;2023-07-20T14:09:15;27.20;59.10
18173;DHT22;9211;48.818;9.312;2023-07-20T14:11:42;27.30;58.50
18173;DHT22;9211;48.818;9.312;2023-07-20T14:14:09;27.50;58.20
18173;DHT22;9211;48.818;9.312;2023-07-20T14:16:36;27.60;57.90
18173;DHT22;9211;48.818;9.312;2023-07-20T14:19:03;27.70;57.90
18173;DHT22;9211;48.818;9.312;2023-07-20T14:21:31;27.60;57.60
18173;DHT22;9211;48.818;9.312;2023-07-20T14:23:59;27.70;57.60
18173;DHT22;9211;48.818;9.312;2023-07-20T14:26:27;27.90;58.30
18173;DHT22;9211;48.818;9.312;2023-07-20T14:28:54;27.90;57.20
18173;DHT22;9211;48.818;9.312;2023-07-20T14:31:21;28.10;58.00
18173;DHT22;9211;48.818;9.312;2023-07-20T14:33:48;28.10;56.50
18173;DHT22;9211;48.818;9.312;2023-07-20T14:36:15;28.10;56.70
18173;DHT22;9211;48.818;9.312;2023-07-20T14:38:42;28.10;56.20
18173;DHT22;9211;48.818;9.312;2023-07-20T14:41:09;28.30;56.20
18173;DHT22;9211;48.818;9.312;2023-07-20T14:43:39;28.30;56.40
18173;DHT22;9211;48.818;9.312;2023-07-20T14:46:06;28.40;56.10
18173;DHT22;9211;48.818;9.312;2023-07-20T14:48:33;28.30;56.10
18173;DHT22;9211;48.818;9.312;2023-07-20T14:50:59;28.50;56.90
18173;DHT22;9211;48.818;9.312;2023-07-20T14:53:26;28.50;55.60
18173;DHT22;9211;48.818;9.312;2023-07-20T14:55:59;28.60;55.60
18173;DHT22;9211;48.818;9.312;2023-07-20T14:58:26;28.50;54.40
18173;DHT22;9211;48.818;9.312;2023-07-20T15:00:55;28.50;54.90
18173;DHT22;9211;48.818;9.312;2023-07-20T15:03:22;28.50;54.20
18173;DHT22;9211;48.818;9.312;2023-07-20T15:05:49;28.60;55.40
18173;DHT22;9211;48.818;9.312;2023-07-20T15:08:16;28.70;55.00
18173;DHT22;9211;48.818;9.312;2023-07-20T15:10:44;28.60;54.00
18173;DHT22;9211;48.818;9.312;2023-07-20T15:13:12;28.70;54.70
18173;DHT22;9211;48.818;9.312;2023-07-20T15:15:39;28.80;54.10
18173;DHT22;9211;48.818;9.312;2023-07-20T15:18:08;28.80;53.80
18173;DHT22;9211;48.818;9.312;2023-07-20T15:20:35;29.00;53.80
18173;DHT22;9211;48.818;9.312;2023-07-20T15:23:02;29.10;53.20
18173;DHT22;9211;48.818;9.312;2023-07-20T15:25:29;29.00;52.90
18173;DHT22;9211;48.818;9.312;2023-07-20T15:27:56;28.80;52.70
18173;DHT22;9211;48.818;9.312;2023-07-20T15:30:27;28.60;53.00
18173;DHT22;9211;48.818;9.312;2023-07-20T15:32:55;28.50;53.20
18173;DHT22;9211;48.818;9.312;2023-07-20T15:35:24;28.50;53.50
18173;DHT22;9211;48.818;9.312;2023-07-20T15:37:51;28.50;53.20
18173;DHT22;9211;48.818;9.312;2023-07-20T15:40:18;28.70;53.30
18173;DHT22;9211;48.818;9.312;2023-07-20T15:42:45;28.90;53.90
18173;DHT22;9211;48.818;9.312;2023-07-20T15:45:12;28.90;53.20
18173;DHT22;9211;48.818;9.312;2023-07-20T15:47:41;28.80;53.30
18173;DHT22;9211;48.818;9.312;2023-07-20T15:50:09;28.80;52.90
18173;DHT22;9211;48.818;9.312;2023-07-20T15:52:38;28.70;52.60
18173;DHT22;9211;48.818;9.312;2023-07-20T15:55:08;28.60;52.80